Codisburgo, Brazil
Current Conditions -  °F | °C
As of 11:00 AM on Saturday 25 Oct 2014 (Local Time) from SBLS Reporting Station
Clear Clear  
Wind Chill: 81°   Ceiling: Unl
Heat Index: 81°   Visibility: 6mi
Dew Point: 55°   Wind: 3mph
Humidity: 42%   Direction: 60°ENE
Pressure: 30.06"   Gusts: NA
Location:  19.12°S, 44.32°W
Report Text: SBLS 251300Z 06003KT CAVOK 27/13 Q1018
Loading
Personal Weather Stations






























Interactive Weather Map
Tropical Storm Tracking
New forecast layout! Learn more

10-Day Weather Forecast

Advertisements
Track Severe Weather on mobile